Time;durP1;ratioP1;P1;durP2;ratioP2;P2;SDS_P1;SDS_P2;PMS_P1;PMS_P2;Temp;Humidity;BMP_temperature;BMP_pressure;BME280_temperature;BME280_humidity;BME280_pressure;Samples;Min_cycle;Max_cycle;Signal;HPM_P1;HPM_P2
2021/05/25 00:01:55;;;;;;;6.58;3.67;;;;;;;13.97;66.32;101264.44;1708700;83;21072;-66
2021/05/25 00:04:21;;;;;;;6.03;3.33;;;;;;;13.95;66.29;101268.53;1706438;82;21052;-65
2021/05/25 00:06:47;;;;;;;6.05;3.52;;;;;;;13.91;66.20;101265.30;1682584;83;22267;-69
2021/05/25 00:09:16;;;;;;;7.00;3.30;;;;;;;13.84;66.19;101264.59;1705405;82;21551;-68
2021/05/25 00:11:44;;;;;;;6.22;2.80;;;;;;;13.72;66.34;101262.45;1706285;83;21119;-69
2021/05/25 00:14:10;;;;;;;5.25;2.98;;;;;;;13.68;66.39;101263.64;1676046;83;21206;-65
2021/05/25 00:16:38;;;;;;;6.03;3.42;;;;;;;13.73;66.37;101266.76;1703077;83;21637;-66
2021/05/25 00:19:05;;;;;;;6.87;3.47;;;;;;;13.78;66.18;101271.69;1676618;83;22543;-66
2021/05/25 00:21:33;;;;;;;5.85;3.15;;;;;;;13.74;66.15;101267.96;1707447;83;21634;-66
2021/05/25 00:24:00;;;;;;;5.22;2.90;;;;;;;13.68;66.31;101267.61;1643717;84;21679;-65
2021/05/25 00:26:27;;;;;;;5.12;3.37;;;;;;;13.62;66.57;101270.27;1710085;83;21068;-65
2021/05/25 00:28:53;;;;;;;6.20;3.37;;;;;;;13.60;66.81;101267.37;1708205;83;21060;-66
2021/05/25 00:31:19;;;;;;;5.75;2.77;;;;;;;13.59;66.78;101264.37;1706732;83;21172;-68
2021/05/25 00:33:46;;;;;;;7.47;3.90;;;;;;;13.55;66.83;101263.30;1708432;82;21140;-66
2021/05/25 00:36:13;;;;;;;6.50;2.98;;;;;;;13.51;67.15;101265.80;1703919;83;21120;-66
2021/05/25 00:38:40;;;;;;;6.22;3.37;;;;;;;13.55;67.62;101268.59;1707668;82;21073;-66
2021/05/25 00:41:06;;;;;;;4.67;2.50;;;;;;;13.64;67.81;101262.22;1709754;83;21085;-67
2021/05/25 00:43:34;;;;;;;5.67;2.92;;;;;;;13.70;67.68;101269.19;1707557;82;21155;-66
2021/05/25 00:46:00;;;;;;;6.20;3.55;;;;;;;13.75;67.30;101272.77;1704998;83;21401;-64
2021/05/25 00:48:26;;;;;;;7.72;3.30;;;;;;;13.72;67.03;101279.16;1706254;83;21092;-66
2021/05/25 00:50:55;;;;;;;6.15;3.70;;;;;;;13.67;67.03;101279.17;1704145;82;21030;-64
2021/05/25 00:53:22;;;;;;;6.67;3.17;;;;;;;13.65;66.93;101281.93;1667031;82;21148;-68
2021/05/25 00:55:48;;;;;;;6.42;3.25;;;;;;;13.61;66.78;101279.64;1676491;84;21115;-65
2021/05/25 00:58:15;;;;;;;8.03;3.30;;;;;;;13.57;66.88;101281.69;1702385;82;21545;-66
2021/05/25 01:00:46;;;;;;;7.00;4.10;;;;;;;13.53;66.70;101285.06;1709421;83;21063;-66
2021/05/25 01:03:17;;;;;;;5.67;3.02;;;;;;;13.47;66.49;101283.38;1700125;82;21556;-65
2021/05/25 01:05:44;;;;;;;5.47;2.65;;;;;;;13.44;66.50;101284.44;1702021;83;21163;-70
2021/05/25 01:08:12;;;;;;;6.47;2.90;;;;;;;13.51;66.31;101286.95;1671658;83;21171;-68
2021/05/25 01:10:47;;;;;;;5.67;2.75;;;;;;;13.55;66.09;101283.62;1707038;82;21447;-65
2021/05/25 01:13:27;;;;;;;5.75;2.98;;;;;;;13.55;65.95;101282.30;1699409;83;21563;-66
2021/05/25 01:15:49;;;;;;;5.58;3.05;;;;;;;13.50;66.13;101286.61;1701302;83;21088;-65
2021/05/25 01:18:18;;;;;;;8.08;2.98;;;;;;;13.49;66.17;101286.73;1669828;83;21096;-68
2021/05/25 01:20:49;;;;;;;7.05;3.37;;;;;;;13.45;66.06;101275.55;1700870;83;21716;-65
2021/05/25 01:23:16;;;;;;;5.10;2.83;;;;;;;13.41;65.90;101280.70;1674533;83;21124;-65
2021/05/25 01:25:46;;;;;;;6.25;2.95;;;;;;;13.35;65.87;101283.36;1674614;83;21072;-66
2021/05/25 01:28:13;;;;;;;4.95;2.83;;;;;;;13.27;66.01;101276.47;1704340;83;21140;-68
2021/05/25 01:30:43;;;;;;;5.40;2.60;;;;;;;13.18;66.20;101271.41;1706159;83;22004;-69
2021/05/25 01:33:10;;;;;;;6.00;2.65;;;;;;;13.17;66.18;101275.49;1703590;83;21088;-66
2021/05/25 01:35:37;;;;;;;5.55;2.80;;;;;;;13.19;66.07;101278.36;1669524;83;21057;-65
2021/05/25 01:38:06;;;;;;;7.12;2.83;;;;;;;13.22;66.08;101276.47;1671534;83;21124;-66
2021/05/25 01:40:32;;;;;;;6.35;3.15;;;;;;;13.21;66.00;101280.89;1705676;83;22253;-68
2021/05/25 01:42:59;;;;;;;5.42;3.00;;;;;;;13.15;66.13;101280.89;1672783;83;21057;-65
2021/05/25 01:45:28;;;;;;;5.00;2.83;;;;;;;13.13;66.24;101287.23;1696832;83;21350;-65
2021/05/25 01:47:56;;;;;;;5.90;3.25;;;;;;;13.09;66.40;101295.88;1697664;82;21108;-65
2021/05/25 01:50:24;;;;;;;5.10;3.27;;;;;;;13.03;66.62;101300.33;1679025;83;22351;-70
2021/05/25 01:52:58;;;;;;;5.42;2.95;;;;;;;12.97;66.64;101291.55;1685291;83;21586;-68
2021/05/25 01:55:37;;;;;;;5.90;3.37;;;;;;;12.90;66.69;101291.66;1713135;81;21119;-68
2021/05/25 01:58:25;;;;;;;7.97;3.30;;;;;;;12.81;66.86;101290.06;1711275;83;21147;-64
2021/05/25 02:00:54;;;;;;;5.35;2.80;;;;;;;12.76;67.14;101292.20;1713249;83;21119;-65
2021/05/25 02:03:20;;;;;;;4.90;2.72;;;;;;;12.81;67.17;101287.42;1712711;81;21076;-64
2021/05/25 02:05:48;;;;;;;4.92;2.55;;;;;;;12.86;66.99;101291.50;1716134;81;21617;-65
2021/05/25 02:08:16;;;;;;;6.33;2.62;;;;;;;12.87;67.02;101291.39;1711918;83;21033;-65
2021/05/25 02:10:50;;;;;;;5.75;2.65;;;;;;;12.87;67.02;101292.71;1715768;83;21131;-64
2021/05/25 02:13:22;;;;;;;7.65;3.27;;;;;;;12.85;66.90;101293.80;1715014;83;21131;-67
2021/05/25 02:15:55;;;;;;;8.08;3.83;;;;;;;12.75;67.09;101298.44;1689909;83;21155;-65
2021/05/25 02:18:25;;;;;;;9.05;4.58;;;;;;;12.67;67.27;101292.05;1714875;83;21060;-64
2021/05/25 02:21:01;;;;;;;9.98;4.90;;;;;;;12.59;67.39;101305.34;1716383;83;21068;-65
2021/05/25 02:23:28;;;;;;;8.23;4.72;;;;;;;12.54;67.56;101302.20;1685557;83;21045;-64
2021/05/25 02:25:55;;;;;;;9.68;4.47;;;;;;;12.55;67.38;101296.44;1714923;81;21103;-65
2021/05/25 02:28:22;;;;;;;7.08;4.20;;;;;;;12.62;67.26;101300.30;1690079;83;21075;-65
2021/05/25 02:30:50;;;;;;;7.05;3.87;;;;;;;12.68;67.29;101299.86;1719321;81;21060;-67
2021/05/25 02:33:19;;;;;;;7.75;3.90;;;;;;;12.72;67.18;101299.14;1683147;83;21618;-65
2021/05/25 02:35:47;;;;;;;7.58;4.40;;;;;;;12.74;67.12;101293.27;1689955;83;21064;-70
2021/05/25 02:38:14;;;;;;;8.18;4.67;;;;;;;12.74;66.98;101287.98;1718273;83;21667;-68
2021/05/25 02:40:46;;;;;;;5.95;3.75;;;;;;;12.74;66.95;101290.17;1714575;83;21083;-66
2021/05/25 02:43:14;;;;;;;9.55;4.00;;;;;;;12.74;66.90;101294.13;1709716;83;21088;-67
2021/05/25 02:45:42;;;;;;;7.87;4.08;;;;;;;12.74;66.82;101291.95;1718864;82;21103;-65
2021/05/25 02:48:08;;;;;;;6.10;4.08;;;;;;;12.74;66.83;101294.59;1711103;81;21718;-66
2021/05/25 02:50:35;;;;;;;7.42;4.30;;;;;;;12.71;66.58;101296.99;1718263;83;21117;-65
2021/05/25 02:53:02;;;;;;;6.87;4.08;;;;;;;12.71;66.52;101296.99;1687297;83;21517;-68
2021/05/25 02:55:31;;;;;;;5.40;3.30;;;;;;;12.78;66.49;101298.21;1719594;83;21127;-68
2021/05/25 02:57:58;;;;;;;7.70;3.47;;;;;;;12.87;66.65;101304.59;1717544;83;21073;-65
2021/05/25 03:00:27;;;;;;;6.50;3.85;;;;;;;12.95;66.80;101307.50;1717945;83;21088;-65
2021/05/25 03:02:54;;;;;;;6.35;3.75;;;;;;;13.03;67.03;101306.94;1717668;83;21630;-64
2021/05/25 03:05:23;;;;;;;6.60;4.30;;;;;;;13.12;67.17;101314.16;1716209;83;21063;-68
2021/05/25 03:07:52;;;;;;;8.15;4.53;;;;;;;13.19;67.20;101314.04;1709059;83;21654;-65
2021/05/25 03:10:20;;;;;;;6.95;4.35;;;;;;;13.25;67.53;101314.56;1715487;83;21973;-66
2021/05/25 03:12:46;;;;;;;7.12;4.40;;;;;;;13.27;67.57;101313.95;1688362;83;21087;-69
2021/05/25 03:15:16;;;;;;;7.62;4.85;;;;;;;13.33;67.50;101321.42;1712819;83;21091;-67
2021/05/25 03:17:44;;;;;;;9.03;5.95;;;;;;;13.43;67.24;101313.63;1684452;83;21948;-67
2021/05/25 03:20:12;;;;;;;10.08;6.30;;;;;;;13.49;67.18;101314.00;1690921;83;21088;-72
2021/05/25 03:22:39;;;;;;;7.55;5.03;;;;;;;13.54;67.16;101309.69;1687277;83;21119;-68
2021/05/25 03:25:07;;;;;;;6.85;4.55;;;;;;;13.57;67.13;101317.39;1714177;83;21088;-66
2021/05/25 03:27:34;;;;;;;7.90;4.30;;;;;;;13.61;67.16;101315.34;1714361;81;21646;-69
2021/05/25 03:30:01;;;;;;;7.17;4.08;;;;;;;13.62;67.08;101314.39;1707679;81;21114;-73
2021/05/25 03:32:27;;;;;;;9.08;4.53;;;;;;;13.63;66.98;101317.38;1685716;83;21626;-69
2021/05/25 03:34:54;;;;;;;6.25;4.05;;;;;;;13.61;67.08;101319.30;1712434;83;21123;-66
2021/05/25 03:37:20;;;;;;;6.72;4.17;;;;;;;13.59;67.18;101317.27;1710178;83;21933;-73
2021/05/25 03:39:47;;;;;;;7.92;4.83;;;;;;;13.64;67.17;101319.07;1688057;83;21140;-67
2021/05/25 03:42:14;;;;;;;10.58;5.75;;;;;;;13.67;67.15;101322.80;1711002;83;21112;-68
2021/05/25 03:44:41;;;;;;;9.08;6.20;;;;;;;13.69;67.08;101323.03;1705335;83;21099;-67
2021/05/25 03:47:07;;;;;;;8.10;5.67;;;;;;;13.72;67.14;101327.25;1710490;83;21656;-68
2021/05/25 03:49:33;;;;;;;9.05;6.05;;;;;;;13.75;67.25;101329.17;1710084;81;21229;-68
2021/05/25 03:52:00;;;;;;;8.75;6.22;;;;;;;13.80;67.33;101328.81;1685682;82;22821;-68
2021/05/25 03:54:33;;;;;;;14.20;6.47;;;;;;;13.84;67.51;101324.95;1672912;83;21060;-72
2021/05/25 03:56:58;;;;;;;11.00;6.50;;;;;;;13.92;67.52;101322.55;1701013;83;21060;-71
2021/05/25 03:59:23;;;;;;;9.18;5.65;;;;;;;14.05;67.23;101322.88;1669245;83;21191;-74
2021/05/25 04:01:52;;;;;;;7.33;5.05;;;;;;;14.24;66.91;101319.59;1695419;82;21642;-67
2021/05/25 04:04:19;;;;;;;9.10;5.25;;;;;;;14.39;66.64;101316.19;1670224;83;21136;-67
2021/05/25 04:06:45;;;;;;;9.40;4.92;;;;;;;14.53;66.42;101312.44;1696943;83;21081;-72
2021/05/25 04:09:13;;;;;;;7.47;4.30;;;;;;;14.66;66.43;101315.79;1679855;83;21116;-66
2021/05/25 04:11:41;;;;;;;8.48;4.35;;;;;;;14.78;66.09;101316.58;1699412;83;21152;-66
2021/05/25 04:14:09;;;;;;;6.65;3.65;;;;;;;14.89;65.75;101316.51;1692788;83;22424;-74
2021/05/25 04:16:36;;;;;;;7.20;4.53;;;;;;;14.99;64.90;101314.77;1672879;83;21144;-68
2021/05/25 04:19:04;;;;;;;7.80;4.62;;;;;;;15.05;64.65;101314.26;1701295;83;21613;-67
2021/05/25 04:21:32;;;;;;;7.83;3.17;;;;;;;15.11;64.66;101313.38;1680078;83;21582;-68
2021/05/25 04:23:59;;;;;;;7.30;3.20;;;;;;;15.15;64.14;101320.12;1701796;83;21136;-65
2021/05/25 04:26:27;;;;;;;7.62;3.47;;;;;;;15.21;63.56;101316.47;1618657;86;21130;-67
2021/05/25 04:28:54;;;;;;;8.50;3.90;;;;;;;15.34;63.56;101314.92;1657303;84;21223;-67
2021/05/25 04:31:21;;;;;;;5.47;2.87;;;;;;;15.50;64.04;101317.58;1650555;84;21604;-66
2021/05/25 04:33:47;;;;;;;7.75;3.50;;;;;;;15.64;63.53;101314.58;1646306;84;22412;-67
2021/05/25 04:36:13;;;;;;;8.68;4.10;;;;;;;15.77;63.24;101313.08;1655709;84;22308;-69
2021/05/25 04:38:41;;;;;;;8.13;3.75;;;;;;;15.85;63.06;101308.41;1641537;84;21175;-74
2021/05/25 04:41:08;;;;;;;6.50;3.50;;;;;;;15.94;63.07;101308.44;1657081;85;21169;-67
2021/05/25 04:43:34;;;;;;;6.87;3.30;;;;;;;16.01;62.75;101303.42;1656169;85;21670;-70
2021/05/25 04:46:00;;;;;;;6.45;2.92;;;;;;;16.06;62.44;101309.17;1664456;85;21096;-66
2021/05/25 04:48:27;;;;;;;5.00;3.02;;;;;;;16.12;62.34;101305.98;1671599;83;21072;-68
2021/05/25 04:50:54;;;;;;;6.33;3.12;;;;;;;16.20;62.44;101300.46;1700249;82;21715;-70
2021/05/25 04:53:21;;;;;;;6.60;3.10;;;;;;;16.35;61.75;101296.42;1687628;83;21091;-78
2021/05/25 04:55:47;;;;;;;7.40;3.10;;;;;;;16.50;61.32;101300.34;1705863;82;21375;-68
2021/05/25 04:58:14;;;;;;;5.08;3.05;;;;;;;16.62;60.84;101294.91;1675034;83;21092;-68
2021/05/25 05:00:40;;;;;;;5.37;2.60;;;;;;;16.66;60.20;101291.84;1704961;83;20930;-71
2021/05/25 05:03:07;;;;;;;5.10;2.47;;;;;;;16.71;60.17;101290.09;1683157;82;21033;-69
2021/05/25 05:05:33;;;;;;;6.20;3.00;;;;;;;16.77;60.40;101290.00;1702777;82;21579;-71
2021/05/25 05:08:00;;;;;;;5.03;2.35;;;;;;;16.84;60.22;101288.45;1677523;83;21571;-71
2021/05/25 05:10:27;;;;;;;6.83;2.75;;;;;;;16.92;60.04;101275.33;1702921;82;21064;-73
2021/05/25 05:12:53;;;;;;;7.12;2.60;;;;;;;17.00;59.90;101268.81;1639515;85;21064;-72
2021/05/25 05:15:19;;;;;;;9.18;2.17;;;;;;;17.11;59.57;101264.30;1684737;83;21076;-74
2021/05/25 05:17:47;;;;;;;6.10;2.33;;;;;;;17.20;58.93;101269.59;1699711;82;21013;-68
2021/05/25 05:20:15;;;;;;;4.30;1.92;;;;;;;17.29;58.68;101274.53;1677464;82;21076;-70
2021/05/25 05:22:41;;;;;;;6.28;2.60;;;;;;;17.41;57.68;101285.33;1683831;82;20969;-68
2021/05/25 05:25:09;;;;;;;8.25;2.75;;;;;;;17.50;56.79;101278.80;1704445;82;20999;-71
2021/05/25 05:27:35;;;;;;;3.92;1.77;;;;;;;17.58;57.12;101274.41;1692076;83;20945;-71
2021/05/25 05:30:02;;;;;;;6.90;2.17;;;;;;;17.67;56.70;101278.04;1706427;82;21035;-67
2021/05/25 05:32:29;;;;;;;3.75;1.60;;;;;;;17.75;56.66;101274.63;1707686;83;21567;-71
2021/05/25 05:34:55;;;;;;;6.20;1.85;;;;;;;17.80;56.23;101276.34;1709086;83;22441;-68
2021/05/25 05:37:21;;;;;;;4.62;1.85;;;;;;;17.89;56.33;101285.32;1675130;82;21088;-74
2021/05/25 05:39:48;;;;;;;4.80;1.80;;;;;;;17.99;56.04;101289.59;1697328;82;21123;-69
2021/05/25 05:42:15;;;;;;;5.03;1.95;;;;;;;18.07;56.12;101282.20;1705832;82;21119;-72
2021/05/25 05:44:44;;;;;;;4.72;1.90;;;;;;;18.14;55.28;101287.26;1709044;82;21084;-68
2021/05/25 05:47:10;;;;;;;3.35;1.27;;;;;;;18.19;54.96;101280.98;1684288;83;21442;-69
2021/05/25 05:49:38;;;;;;;5.40;1.57;;;;;;;18.24;55.55;101278.34;1694256;82;21093;-69
2021/05/25 05:52:05;;;;;;;3.15;1.32;;;;;;;18.33;56.24;101276.95;1707432;82;21093;-70
2021/05/25 05:54:32;;;;;;;5.30;1.77;;;;;;;18.49;56.05;101271.42;1711125;82;21702;-71
2021/05/25 05:57:00;;;;;;;4.83;1.95;;;;;;;18.61;55.75;101276.88;1706122;82;21012;-69
2021/05/25 05:59:26;;;;;;;4.60;2.02;;;;;;;18.70;55.58;101273.27;1708957;83;20997;-69
2021/05/25 06:01:53;;;;;;;4.72;2.00;;;;;;;18.77;55.63;101278.00;1709929;82;21020;-72
2021/05/25 06:04:19;;;;;;;4.50;1.90;;;;;;;18.83;55.50;101266.25;1690125;83;21571;-69
2021/05/25 06:07:52;;;;;;;5.85;2.40;;;;;;;18.98;54.97;101263.00;1807904;77;22251;-69
2021/05/25 06:10:21;;;;;;;4.97;2.02;;;;;;;19.02;54.20;101264.37;1804576;77;20989;-70
2021/05/25 06:12:49;;;;;;;6.47;1.95;;;;;;;19.08;54.01;101264.59;1794509;77;21021;-76
2021/05/25 06:15:15;;;;;;;4.37;1.98;;;;;;;19.14;53.19;101259.63;1790171;77;21084;-71
2021/05/25 06:17:42;;;;;;;3.98;1.50;;;;;;;19.19;52.71;101258.65;1768437;77;21018;-71
2021/05/25 06:20:09;;;;;;;3.37;1.30;;;;;;;19.21;52.47;101257.98;1800130;77;21024;-69
2021/05/25 06:22:38;;;;;;;3.10;1.10;;;;;;;19.21;51.79;101255.31;1800198;77;22268;-72
2021/05/25 06:25:09;;;;;;;3.52;1.25;;;;;;;19.21;50.96;101253.48;1783461;78;21094;-72
2021/05/25 06:27:37;;;;;;;3.47;1.35;;;;;;;19.24;50.00;101243.00;1783612;78;21730;-65
2021/05/25 06:30:06;;;;;;;3.30;1.10;;;;;;;19.30;50.11;101242.38;1785685;78;21059;-72
2021/05/25 06:32:34;;;;;;;3.40;1.27;;;;;;;19.38;50.65;101240.22;1781107;79;20910;-66
2021/05/25 06:35:01;;;;;;;3.62;1.40;;;;;;;19.46;51.18;101238.42;1786459;77;20961;-67
2021/05/25 06:37:27;;;;;;;3.75;1.40;;;;;;;19.51;51.85;101236.61;1786871;78;21009;-75
2021/05/25 06:39:54;;;;;;;3.95;1.30;;;;;;;19.56;50.59;101230.80;1785033;78;21400;-67
2021/05/25 06:42:22;;;;;;;3.35;1.22;;;;;;;19.57;50.76;101221.30;1787125;78;21088;-66
2021/05/25 06:44:48;;;;;;;6.95;1.70;;;;;;;19.63;51.14;101215.80;1759106;79;21658;-74
2021/05/25 06:47:15;;;;;;;3.67;1.17;;;;;;;19.68;51.37;101220.16;1783978;78;21064;-70
2021/05/25 06:49:41;;;;;;;4.90;1.20;;;;;;;19.71;51.04;101227.84;1783861;78;22367;-68
2021/05/25 06:52:09;;;;;;;5.33;1.27;;;;;;;19.75;50.40;101226.54;1753643;79;21092;-71
2021/05/25 06:54:36;;;;;;;4.60;1.05;;;;;;;19.81;50.28;101225.90;1785640;78;21330;-67
2021/05/25 06:57:03;;;;;;;6.72;1.90;;;;;;;19.88;49.94;101228.75;1789232;78;21108;-73
2021/05/25 06:59:29;;;;;;;4.67;1.07;;;;;;;19.90;49.64;101229.42;1759220;78;21089;-71
2021/05/25 07:01:56;;;;;;;2.62;1.12;;;;;;;19.94;48.50;101227.25;1786328;78;21097;-69
2021/05/25 07:04:23;;;;;;;3.22;1.30;;;;;;;19.98;48.12;101225.44;1717860;80;21081;-70
2021/05/25 07:06:49;;;;;;;3.98;1.10;;;;;;;20.04;48.23;101224.78;1710709;82;21536;-68
2021/05/25 07:09:16;;;;;;;3.02;0.98;;;;;;;20.12;47.89;101223.12;1751852;80;21112;-70
2021/05/25 07:11:42;;;;;;;3.02;1.20;;;;;;;20.19;48.11;101221.45;1727331;82;21206;-68
2021/05/25 07:14:10;;;;;;;4.17;1.30;;;;;;;20.27;47.58;101224.64;1718141;82;21133;-71
2021/05/25 07:16:37;;;;;;;3.92;1.00;;;;;;;20.35;47.80;101228.15;1727152;80;21080;-71
2021/05/25 07:19:04;;;;;;;3.65;0.90;;;;;;;20.40;47.76;101221.80;1675816;81;21120;-69
2021/05/25 07:21:30;;;;;;;9.35;1.67;;;;;;;20.46;46.96;101217.64;1733862;81;21579;-69
2021/05/25 07:23:57;;;;;;;3.87;1.02;;;;;;;20.43;46.48;101219.31;1729703;81;21069;-69
2021/05/25 07:26:23;;;;;;;3.58;1.45;;;;;;;20.40;46.34;101217.79;1697428;81;21107;-69
2021/05/25 07:28:52;;;;;;;4.92;1.40;;;;;;;20.37;46.81;101221.30;1731517;80;21185;-69
2021/05/25 07:31:18;;;;;;;4.92;2.00;;;;;;;20.35;47.21;101225.48;1735005;81;21026;-66
2021/05/25 07:33:46;;;;;;;2.85;1.07;;;;;;;20.39;47.07;101227.31;1735345;81;21689;-68
2021/05/25 07:36:13;;;;;;;2.30;0.80;;;;;;;20.44;47.28;101220.96;1738712;81;22320;-70
2021/05/25 07:38:39;;;;;;;4.50;1.10;;;;;;;20.51;47.33;101215.78;1736673;81;21143;-67
2021/05/25 07:41:06;;;;;;;3.25;1.22;;;;;;;20.53;46.79;101214.62;1709702;81;21335;-72
2021/05/25 07:43:34;;;;;;;3.98;1.35;;;;;;;20.58;46.17;101222.15;1726251;80;21936;-69
2021/05/25 07:46:01;;;;;;;6.50;1.25;;;;;;;20.60;46.46;101220.96;1734882;80;20994;-67
2021/05/25 07:48:27;;;;;;;2.50;1.00;;;;;;;20.64;46.73;101215.31;1750467;80;21061;-69
2021/05/25 07:50:54;;;;;;;4.25;1.15;;;;;;;20.71;46.18;101213.63;1732925;81;21374;-71
2021/05/25 07:53:20;;;;;;;3.72;1.35;;;;;;;20.74;45.51;101206.61;1717129;80;21073;-68
2021/05/25 07:55:46;;;;;;;3.20;1.20;;;;;;;20.75;45.87;101211.78;1733700;80;21968;-71
2021/05/25 07:58:13;;;;;;;2.77;1.17;;;;;;;20.78;46.23;101214.64;1732918;80;20973;-69
2021/05/25 08:00:39;;;;;;;2.83;0.90;;;;;;;20.81;46.25;101208.92;1733626;80;21562;-69
2021/05/25 08:03:06;;;;;;;2.95;0.98;;;;;;;20.84;45.05;101205.91;1711963;81;20929;-68
2021/05/25 08:05:32;;;;;;;2.45;1.00;;;;;;;20.85;43.79;101200.09;1703917;82;21619;-71
2021/05/25 08:08:03;;;;;;;3.40;1.25;;;;;;;20.87;44.25;101198.89;1701255;82;20965;-68
2021/05/25 08:10:31;;;;;;;3.58;0.90;;;;;;;20.93;44.99;101196.88;1715285;82;21189;-74
2021/05/25 08:13:00;;;;;;;3.77;1.20;;;;;;;20.97;42.28;101188.83;1728393;82;21375;-67
2021/05/25 08:15:29;;;;;;;3.37;1.10;;;;;;;21.03;41.67;101194.50;1723501;82;21092;-69
2021/05/25 08:18:04;;;;;;;3.22;0.80;;;;;;;21.02;40.84;101193.67;1731801;82;21148;-68
2021/05/25 08:20:25;;;;;;;5.05;1.30;;;;;;;21.04;41.61;101200.20;1726326;81;21152;-69
2021/05/25 08:22:55;;;;;;;3.15;0.70;;;;;;;21.09;41.84;101200.52;1729109;82;21093;-67
2021/05/25 08:25:25;;;;;;;3.17;1.15;;;;;;;21.11;40.11;101188.61;1725109;82;21085;-68
2021/05/25 08:27:53;;;;;;;3.67;0.93;;;;;;;21.14;42.08;101187.45;1673791;83;21642;-72
2021/05/25 08:30:22;;;;;;;2.83;1.10;;;;;;;21.20;42.89;101180.08;1690137;83;21136;-72
2021/05/25 08:32:50;;;;;;;2.52;0.90;;;;;;;21.26;42.75;101175.86;1680668;83;21423;-68
2021/05/25 08:35:19;;;;;;;2.62;0.90;;;;;;;21.28;42.20;101178.70;1675617;83;21319;-70
2021/05/25 08:37:49;;;;;;;2.55;1.00;;;;;;;21.31;42.51;101179.67;1687399;83;21074;-68
2021/05/25 08:40:18;;;;;;;3.12;0.80;;;;;;;21.36;39.97;101177.82;1694637;82;21160;-68
2021/05/25 08:42:46;;;;;;;1.98;0.80;;;;;;;21.38;41.04;101173.12;1722534;82;21117;-72
2021/05/25 08:45:14;;;;;;;2.47;0.90;;;;;;;21.43;41.74;101171.27;1717467;81;21076;-69
2021/05/25 08:47:41;;;;;;;2.85;1.00;;;;;;;21.49;42.32;101177.30;1719026;82;21145;-67
2021/05/25 08:50:12;;;;;;;2.87;1.05;;;;;;;21.55;41.17;101177.91;1715191;81;21061;-66
2021/05/25 08:52:38;;;;;;;2.02;0.75;;;;;;;21.58;41.65;101164.17;1686912;82;21733;-69
2021/05/25 08:55:07;;;;;;;2.83;1.00;;;;;;;21.65;42.30;101166.98;1719578;82;21112;-68
2021/05/25 08:57:33;;;;;;;2.00;0.70;;;;;;;21.73;42.13;101167.45;1715465;82;21085;-71
2021/05/25 09:00:00;;;;;;;2.65;1.00;;;;;;;21.81;41.82;101164.73;1714527;81;21792;-72
2021/05/25 09:02:26;;;;;;;2.15;0.72;;;;;;;21.88;40.71;101160.31;1688827;82;21175;-69
2021/05/25 09:05:19;;;;;;;1.65;0.60;;;;;;;21.93;41.49;101155.25;1712605;81;21117;-69
2021/05/25 09:07:48;;;;;;;2.52;0.90;;;;;;;22.01;41.94;101154.37;1730715;80;21118;-68
2021/05/25 09:10:22;;;;;;;4.03;0.88;;;;;;;22.12;41.50;101155.27;1743191;81;21085;-70
2021/05/25 09:12:52;;;;;;;3.22;0.93;;;;;;;22.19;41.42;101152.20;1750315;81;20977;-69
2021/05/25 09:15:45;;;;;;;2.85;0.98;;;;;;;22.21;39.69;101149.34;1745083;81;21089;-68
2021/05/25 09:18:23;;;;;;;1.65;0.72;;;;;;;22.20;39.89;101149.02;1742696;80;21182;-69
2021/05/25 09:20:53;;;;;;;1.85;0.70;;;;;;;22.23;40.40;101160.72;1746628;81;21158;-71
2021/05/25 09:23:38;;;;;;;2.52;0.85;;;;;;;22.26;40.41;101159.02;1748646;81;21595;-72
2021/05/25 09:26:11;;;;;;;1.87;0.70;;;;;;;22.33;39.38;101164.01;1727074;80;21606;-69
2021/05/25 09:28:58;;;;;;;2.22;0.88;;;;;;;22.37;39.47;101157.77;1710051;80;21081;-70
2021/05/25 09:31:38;;;;;;;1.52;0.50;;;;;;;22.41;39.66;101153.73;1750159;81;22277;-69
2021/05/25 09:34:09;;;;;;;2.15;0.78;;;;;;;22.48;40.08;101155.14;1746834;81;21094;-76
2021/05/25 09:37:12;;;;;;;3.70;1.10;;;;;;;22.55;39.95;101147.54;1717174;81;21120;-71
2021/05/25 09:39:53;;;;;;;2.25;0.60;;;;;;;22.58;39.67;101150.38;1745000;80;21799;-67
2021/05/25 09:42:20;;;;;;;1.90;0.70;;;;;;;22.59;40.04;101154.70;1742752;80;21120;-69
2021/05/25 09:45:00;;;;;;;1.75;0.88;;;;;;;22.62;40.25;101148.46;1753181;81;21760;-68
2021/05/25 09:47:37;;;;;;;3.10;0.93;;;;;;;22.62;38.18;101148.98;1751984;81;21546;-66
2021/05/25 09:50:05;;;;;;;1.75;0.60;;;;;;;22.52;40.20;101145.73;1745552;80;21070;-71
2021/05/25 09:52:32;;;;;;;1.92;0.80;;;;;;;22.54;41.07;101141.02;1746259;81;21443;-73
2021/05/25 09:55:12;;;;;;;2.52;0.82;;;;;;;22.58;41.32;101131.60;1746733;80;21101;-67
2021/05/25 09:57:51;;;;;;;2.35;0.90;;;;;;;22.65;41.22;101140.57;1744287;80;21709;-73
2021/05/25 10:00:36;;;;;;;3.25;0.90;;;;;;;22.71;40.69;101137.65;1737739;80;21148;-69
2021/05/25 10:03:16;;;;;;;2.10;0.65;;;;;;;22.80;39.99;101137.89;1712285;81;22253;-69
2021/05/25 10:05:51;;;;;;;2.65;0.78;;;;;;;22.87;38.69;101140.67;1744986;80;21176;-70
2021/05/25 10:08:22;;;;;;;3.15;0.90;;;;;;;22.85;38.70;101131.95;1741840;80;21057;-67
2021/05/25 10:10:54;;;;;;;4.08;0.90;;;;;;;22.86;40.53;101129.09;1716734;81;21164;-69
2021/05/25 10:13:24;;;;;;;1.85;0.60;;;;;;;22.95;41.44;101129.84;1748702;79;21144;-68
2021/05/25 10:15:53;;;;;;;2.10;0.70;;;;;;;23.05;40.32;101121.48;1753021;77;21128;-71
2021/05/25 10:21:03;;;;;;;2.70;0.90;;;;;;;23.15;39.83;101118.06;1748150;79;21655;-69
2021/05/25 10:23:33;;;;;;;2.87;0.88;;;;;;;23.25;40.36;101113.70;1750974;79;21073;-69
2021/05/25 10:25:57;;;;;;;2.10;0.78;;;;;;;23.34;40.31;101116.62;1750190;80;21142;-68
2021/05/25 10:28:24;;;;;;;2.80;0.75;;;;;;;23.40;39.35;101113.15;1752751;79;21085;-72
2021/05/25 10:30:51;;;;;;;4.80;0.78;;;;;;;23.44;38.94;101109.60;1775384;79;21369;-67
2021/05/25 10:33:21;;;;;;;2.17;0.60;;;;;;;23.50;39.69;101104.80;1772665;79;21556;-73
2021/05/25 10:35:57;;;;;;;3.10;0.60;;;;;;;23.60;39.69;101091.88;1775588;79;21772;-69
2021/05/25 10:38:28;;;;;;;3.67;1.10;;;;;;;23.68;38.28;101090.93;1750375;79;21112;-69
2021/05/25 10:41:04;;;;;;;1.60;0.60;;;;;;;23.76;38.27;101071.99;1747060;79;21073;-68
2021/05/25 10:43:45;;;;;;;1.75;0.60;;;;;;;23.81;38.38;101058.81;1775564;79;21635;-70
2021/05/25 10:46:15;;;;;;;1.80;0.75;;;;;;;23.83;39.02;101055.44;1771512;79;21122;-71
2021/05/25 10:49:11;;;;;;;2.25;0.70;;;;;;;23.84;38.63;101057.11;1770480;79;21117;-72
2021/05/25 10:51:55;;;;;;;1.87;0.80;;;;;;;23.86;39.08;101056.40;1776853;79;21308;-66
2021/05/25 10:54:43;;;;;;;2.27;0.85;;;;;;;23.90;39.37;101064.37;1754628;79;21064;-69
2021/05/25 10:57:33;;;;;;;4.17;1.55;;;;;;;23.95;39.17;101066.48;1755778;79;21137;-68
2021/05/25 11:00:17;;;;;;;3.75;1.40;;;;;;;24.01;39.38;101067.59;1775599;79;21104;-67
2021/05/25 11:02:57;;;;;;;2.55;0.70;;;;;;;24.03;38.21;101070.91;1720951;82;21077;-67
2021/05/25 11:05:38;;;;;;;1.92;0.70;;;;;;;24.06;37.76;101059.77;1759530;79;21093;-67
2021/05/25 11:08:17;;;;;;;4.05;0.80;;;;;;;24.11;37.99;101059.48;1776946;79;21089;-67
2021/05/25 11:10:47;;;;;;;2.45;0.72;;;;;;;24.19;39.16;101056.32;1776131;79;21130;-71
2021/05/25 11:13:25;;;;;;;1.98;0.65;;;;;;;24.26;38.20;101052.66;1774140;79;20961;-70
2021/05/25 11:16:31;;;;;;;2.17;0.50;;;;;;;24.27;38.07;101058.34;1699719;81;21172;-72
2021/05/25 11:19:12;;;;;;;1.75;0.62;;;;;;;24.33;38.70;101050.54;1740926;81;21619;-68
2021/05/25 11:25:00;;;;;;;2.67;0.90;;;;;;;24.46;38.69;101038.48;1776637;79;21053;-68
2021/05/25 11:27:46;;;;;;;3.42;0.80;;;;;;;24.53;38.86;101039.38;1772222;79;21308;-69
2021/05/25 11:30:12;;;;;;;2.87;0.93;;;;;;;24.60;37.90;101031.37;1698301;81;21139;-68
2021/05/25 11:32:43;;;;;;;5.05;0.80;;;;;;;24.67;37.09;101040.30;1776017;78;21587;-70
2021/05/25 11:35:13;;;;;;;2.33;0.90;;;;;;;24.74;36.38;101033.59;1746027;80;21635;-67
2021/05/25 11:37:44;;;;;;;2.83;0.70;;;;;;;24.79;37.36;101031.13;1717902;82;21867;-69
2021/05/25 11:40:16;;;;;;;2.30;0.80;;;;;;;24.91;39.01;101032.73;1754110;80;21148;-67
2021/05/25 11:42:44;;;;;;;2.72;0.85;;;;;;;25.06;38.81;101030.70;1768594;79;21085;-67